createdAt,value
2019-03-24T00:01:02.344Z,37.90
2019-03-24T00:03:28.694Z,36.53
2019-03-24T00:05:55.042Z,35.50
2019-03-24T00:08:21.361Z,34.63
2019-03-24T00:10:47.714Z,38.17
2019-03-24T00:13:14.043Z,36.13
2019-03-24T00:15:40.376Z,35.60
2019-03-24T00:18:06.774Z,35.73
2019-03-24T00:20:33.425Z,38.23
2019-03-24T00:22:59.781Z,33.97
2019-03-24T00:25:26.370Z,36.80
2019-03-24T00:27:52.764Z,31.83
2019-03-24T00:30:19.774Z,37.00
2019-03-24T00:32:46.112Z,35.57
2019-03-24T00:35:13.048Z,35.40
2019-03-24T00:37:39.375Z,33.80
2019-03-24T00:40:06.291Z,34.47
2019-03-24T00:42:32.952Z,35.70
2019-03-24T00:44:59.298Z,35.97
2019-03-24T00:47:26.011Z,34.90
2019-03-24T00:49:52.641Z,35.50
2019-03-24T00:52:19.493Z,32.43
2019-03-24T00:54:46.122Z,36.30
2019-03-24T00:57:12.448Z,33.20
2019-03-24T00:59:38.800Z,36.30
2019-03-24T01:02:05.209Z,33.63
2019-03-24T01:04:32.089Z,34.73
2019-03-24T01:06:58.446Z,33.93
2019-03-24T01:09:24.780Z,37.07
2019-03-24T01:11:51.110Z,36.13
2019-03-24T01:14:17.496Z,36.10
2019-03-24T01:16:44.129Z,37.47
2019-03-24T01:19:10.472Z,36.70
2019-03-24T01:21:36.821Z,37.20
2019-03-24T01:24:03.480Z,38.10
2019-03-24T01:26:30.184Z,36.13
2019-03-24T01:28:56.579Z,36.57
2019-03-24T01:31:22.922Z,37.50
2019-03-24T01:33:49.274Z,36.03
2019-03-24T01:36:15.683Z,36.77
2019-03-24T01:38:42.364Z,36.70
2019-03-24T01:41:08.825Z,37.33
2019-03-24T01:43:35.534Z,36.53
2019-03-24T01:46:01.907Z,38.10
2019-03-24T01:48:28.292Z,40.97
2019-03-24T01:50:54.935Z,37.47
2019-03-24T01:53:21.279Z,39.80
2019-03-24T01:55:47.732Z,39.27
2019-03-24T01:58:14.111Z,39.80
2019-03-24T02:00:40.421Z,39.10
2019-03-24T02:03:07.311Z,38.50
2019-03-24T02:05:33.866Z,39.20
2019-03-24T02:08:00.213Z,38.33
2019-03-24T02:10:26.539Z,41.73
2019-03-24T02:12:52.836Z,40.87
2019-03-24T02:15:19.572Z,37.77
2019-03-24T02:17:46.199Z,38.90
2019-03-24T02:20:12.792Z,41.10
2019-03-24T02:22:39.476Z,38.13
2019-03-24T02:25:06.653Z,41.47
2019-03-24T02:27:33.011Z,38.17
2019-03-24T02:29:59.408Z,39.27
2019-03-24T02:32:25.741Z,40.00
2019-03-24T02:34:52.083Z,39.20
2019-03-24T02:37:18.567Z,41.23
2019-03-24T02:39:44.890Z,37.90
2019-03-24T02:42:11.299Z,37.50
2019-03-24T02:44:38.721Z,39.33
2019-03-24T02:47:05.302Z,41.10
2019-03-24T02:49:31.986Z,39.47
2019-03-24T02:51:58.641Z,39.63
2019-03-24T02:54:25.278Z,41.33
2019-03-24T02:56:51.595Z,40.20
2019-03-24T02:59:17.969Z,39.77
2019-03-24T03:01:44.268Z,40.90
2019-03-24T03:04:11.035Z,40.87
2019-03-24T03:06:37.420Z,38.93
2019-03-24T03:09:04.314Z,40.00
2019-03-24T03:11:30.883Z,39.63
2019-03-24T03:13:57.216Z,37.87
2019-03-24T03:16:37.590Z,40.33
2019-03-24T03:18:51.821Z,40.13
2019-03-24T03:21:18.500Z,39.53
2019-03-24T03:23:44.966Z,41.30
2019-03-24T03:26:11.729Z,40.07
2019-03-24T03:28:38.064Z,41.07
2019-03-24T03:31:04.659Z,40.93
2019-03-24T03:33:31.274Z,42.30
2019-03-24T03:35:57.892Z,43.10
2019-03-24T03:38:24.507Z,41.10
2019-03-24T03:40:50.841Z,40.57
2019-03-24T03:43:17.432Z,40.60
2019-03-24T03:45:44.063Z,40.70
2019-03-24T03:48:10.382Z,40.23
2019-03-24T03:50:36.743Z,42.50
2019-03-24T03:53:03.205Z,38.77
2019-03-24T03:55:30.493Z,41.77
2019-03-24T03:57:56.842Z,41.30
2019-03-24T04:00:34.571Z,41.53
2019-03-24T04:03:03.905Z,40.90
2019-03-24T04:05:30.302Z,41.83
2019-03-24T04:07:57.118Z,41.60
2019-03-24T04:10:23.475Z,39.03
2019-03-24T04:12:50.410Z,37.70
2019-03-24T04:15:16.797Z,40.20
2019-03-24T04:17:43.096Z,40.90
2019-03-24T04:20:10.050Z,38.40
2019-03-24T04:22:36.396Z,39.17
2019-03-24T04:25:07.167Z,39.97
2019-03-24T04:27:33.811Z,38.10
2019-03-24T04:30:00.451Z,37.53
2019-03-24T04:32:27.211Z,35.87
2019-03-24T04:34:53.836Z,39.37
2019-03-24T04:37:20.218Z,36.73
2019-03-24T04:39:46.900Z,37.73
2019-03-24T04:42:13.287Z,38.73
2019-03-24T04:44:39.628Z,35.80
2019-03-24T04:47:16.150Z,38.13
2019-03-24T04:49:34.280Z,37.37
2019-03-24T04:52:00.620Z,35.00
2019-03-24T04:54:27.276Z,37.77
2019-03-24T04:56:53.617Z,35.73
2019-03-24T04:59:20.023Z,36.17
2019-03-24T05:01:46.349Z,38.57
2019-03-24T05:04:12.807Z,38.73
2019-03-24T05:06:39.667Z,36.37
2019-03-24T05:09:06.045Z,36.37
2019-03-24T05:11:33.394Z,36.80
2019-03-24T05:13:59.761Z,36.60
2019-03-24T05:16:26.076Z,36.13
2019-03-24T05:18:52.431Z,38.67
2019-03-24T05:21:18.750Z,35.07
2019-03-24T05:23:46.145Z,38.00
2019-03-24T05:26:12.640Z,36.20
2019-03-24T05:28:38.964Z,36.83
2019-03-24T05:31:05.398Z,34.90
2019-03-24T05:33:31.763Z,37.73
2019-03-24T05:35:58.104Z,36.57
2019-03-24T05:38:24.450Z,37.60
2019-03-24T05:40:51.110Z,34.93
2019-03-24T05:43:17.507Z,38.10
2019-03-24T05:45:43.910Z,38.40
2019-03-24T05:48:10.237Z,38.03
2019-03-24T05:50:36.853Z,35.07
2019-03-24T05:53:03.212Z,33.17
2019-03-24T05:55:29.526Z,35.70
2019-03-24T05:57:56.260Z,34.63
2019-03-24T06:00:22.907Z,36.80
2019-03-24T06:02:50.356Z,35.00
2019-03-24T06:05:16.809Z,34.87
2019-03-24T06:07:43.408Z,34.90
2019-03-24T06:10:10.515Z,33.93
2019-03-24T06:12:36.822Z,32.50
2019-03-24T06:15:06.967Z,30.80
2019-03-24T06:17:33.306Z,30.97
2019-03-24T06:19:59.646Z,31.97
2019-03-24T06:22:26.055Z,27.00
2019-03-24T06:24:52.391Z,28.90
2019-03-24T06:27:18.728Z,30.30
2019-03-24T06:29:45.422Z,30.53
2019-03-24T06:32:12.068Z,32.27
2019-03-24T06:34:38.641Z,33.90
2019-03-24T06:37:04.973Z,34.83
2019-03-24T06:39:31.289Z,34.17
2019-03-24T06:41:57.898Z,32.80
2019-03-24T06:44:24.266Z,33.90
2019-03-24T06:46:51.085Z,32.73
2019-03-24T06:49:17.818Z,34.03
2019-03-24T06:51:44.159Z,32.73
2019-03-24T06:54:10.475Z,32.37
2019-03-24T06:56:37.120Z,31.37
2019-03-24T06:59:03.864Z,31.73
2019-03-24T07:01:30.211Z,30.13
2019-03-24T07:03:56.932Z,28.93
2019-03-24T07:06:23.245Z,29.33
2019-03-24T07:08:49.635Z,26.40
2019-03-24T07:11:16.018Z,28.13
2019-03-24T07:13:42.383Z,28.37
2019-03-24T07:16:08.807Z,25.00
2019-03-24T07:18:35.538Z,26.63
2019-03-24T07:21:01.899Z,24.80
2019-03-24T07:23:28.335Z,23.13
2019-03-24T07:25:54.734Z,26.20
2019-03-24T07:28:21.101Z,27.40
2019-03-24T07:30:47.526Z,28.33
2019-03-24T07:33:13.840Z,23.93
2019-03-24T07:35:40.183Z,24.17
2019-03-24T07:38:06.488Z,24.37
2019-03-24T07:40:33.117Z,23.77
2019-03-24T07:42:59.465Z,26.53
2019-03-24T07:45:25.815Z,25.83
2019-03-24T07:47:52.181Z,21.30
2019-03-24T07:50:18.614Z,23.77
2019-03-24T07:52:44.953Z,20.27
2019-03-24T07:55:11.620Z,14.40
2019-03-24T07:57:38.030Z,15.17
2019-03-24T08:00:09.746Z,14.07
2019-03-24T08:02:36.455Z,14.40
2019-03-24T08:05:04.290Z,13.87
2019-03-24T08:07:30.947Z,13.20
2019-03-24T08:09:57.310Z,11.27
2019-03-24T08:12:23.931Z,12.37
2019-03-24T08:14:50.303Z,14.83
2019-03-24T08:17:16.991Z,12.30
2019-03-24T08:19:45.965Z,11.83
2019-03-24T08:22:12.294Z,13.90
2019-03-24T08:24:40.524Z,13.20
2019-03-24T08:27:06.885Z,11.83
2019-03-24T08:29:33.213Z,12.47
2019-03-24T08:31:59.908Z,12.47
2019-03-24T08:34:26.230Z,13.53
2019-03-24T08:36:52.548Z,12.17
2019-03-24T08:39:18.883Z,13.70
2019-03-24T08:41:45.259Z,12.03
2019-03-24T08:44:13.404Z,12.80
2019-03-24T08:46:40.759Z,12.37
2019-03-24T08:49:07.391Z,12.73
2019-03-24T08:51:33.851Z,13.37
2019-03-24T08:54:00.578Z,13.70
2019-03-24T08:56:27.008Z,12.93
2019-03-24T08:58:53.338Z,12.90
2019-03-24T09:01:19.978Z,11.87
2019-03-24T09:03:46.292Z,13.57
2019-03-24T09:06:12.622Z,17.57
2019-03-24T09:08:38.971Z,11.63
2019-03-24T09:11:05.284Z,13.03
2019-03-24T09:13:31.625Z,13.10
2019-03-24T09:15:57.958Z,15.97
2019-03-24T09:18:24.616Z,15.97
2019-03-24T09:20:50.955Z,14.23
2019-03-24T09:23:17.282Z,13.63
2019-03-24T09:25:44.006Z,12.03
2019-03-24T09:28:10.456Z,14.63
2019-03-24T09:30:37.013Z,14.23
2019-03-24T09:33:04.062Z,14.00
2019-03-24T09:35:30.862Z,13.20
2019-03-24T09:37:57.352Z,11.77
2019-03-24T09:40:29.750Z,11.53
2019-03-24T09:42:57.890Z,12.70
2019-03-24T09:45:24.475Z,13.00
2019-03-24T09:47:51.125Z,14.23
2019-03-24T09:50:17.749Z,14.23
2019-03-24T09:52:44.412Z,14.40
2019-03-24T09:55:10.735Z,12.50
2019-03-24T09:57:37.031Z,12.90
2019-03-24T10:00:04.046Z,14.47
2019-03-24T10:02:30.634Z,13.90
2019-03-24T10:04:57.277Z,14.50
2019-03-24T10:07:23.918Z,16.53
2019-03-24T10:09:50.588Z,16.00
2019-03-24T10:12:17.662Z,13.20
2019-03-24T10:14:44.020Z,11.20
2019-03-24T10:17:10.338Z,13.00
2019-03-24T10:19:36.670Z,12.43
2019-03-24T10:22:03.334Z,14.70
2019-03-24T10:24:29.850Z,13.07
2019-03-24T10:26:56.151Z,13.23
2019-03-24T10:29:22.477Z,12.40
2019-03-24T10:31:49.167Z,13.07
2019-03-24T10:34:15.517Z,14.40
2019-03-24T10:36:41.877Z,12.47
2019-03-24T10:39:08.587Z,12.93
2019-03-24T10:41:35.217Z,13.70
2019-03-24T10:44:01.555Z,12.53
2019-03-24T10:46:27.921Z,13.07
2019-03-24T10:48:54.529Z,13.57
2019-03-24T10:51:21.170Z,11.20
2019-03-24T10:53:47.790Z,12.67
2019-03-24T10:56:14.472Z,11.97
2019-03-24T10:58:41.079Z,12.03
2019-03-24T11:01:07.374Z,13.17
2019-03-24T11:03:33.728Z,12.57
2019-03-24T11:06:02.309Z,11.93
2019-03-24T11:08:28.971Z,11.90
2019-03-24T11:10:56.614Z,11.50
2019-03-24T11:13:23.062Z,12.07
2019-03-24T11:15:49.436Z,11.40
2019-03-24T11:18:16.132Z,11.20
2019-03-24T11:20:43.166Z,12.63
2019-03-24T11:23:09.516Z,13.07
2019-03-24T11:25:35.854Z,9.50
2019-03-24T11:28:02.212Z,11.77
2019-03-24T11:30:29.642Z,12.27
2019-03-24T11:32:56.256Z,11.50
2019-03-24T11:35:22.911Z,13.50
2019-03-24T11:37:49.394Z,11.27
2019-03-24T11:40:16.169Z,11.77
2019-03-24T11:42:44.610Z,12.97
2019-03-24T11:45:12.112Z,12.60
2019-03-24T11:47:38.504Z,11.37
2019-03-24T11:50:07.526Z,10.70
2019-03-24T11:52:33.959Z,12.33
2019-03-24T11:55:00.374Z,11.43
2019-03-24T11:57:27.214Z,10.80
2019-03-24T11:59:53.804Z,13.70
2019-03-24T12:02:20.648Z,11.90
2019-03-24T12:04:47.269Z,11.30
2019-03-24T12:07:13.714Z,11.03
2019-03-24T12:09:40.455Z,11.17
2019-03-24T12:12:07.206Z,11.20
2019-03-24T12:14:33.638Z,10.93
2019-03-24T12:17:00.324Z,11.47
2019-03-24T12:19:26.772Z,11.33
2019-03-24T12:21:53.551Z,10.70
2019-03-24T12:24:19.904Z,10.77
2019-03-24T12:26:46.243Z,10.90
2019-03-24T12:29:13.147Z,11.67
2019-03-24T12:31:39.522Z,10.40
2019-03-24T12:34:06.140Z,11.30
2019-03-24T12:36:32.851Z,10.10
2019-03-24T12:38:59.259Z,11.87
2019-03-24T12:41:25.939Z,10.63
2019-03-24T12:43:52.282Z,10.87
2019-03-24T12:46:18.639Z,9.77
2019-03-24T12:48:45.087Z,11.00
2019-03-24T12:51:11.944Z,10.53
2019-03-24T12:53:39.765Z,10.20
2019-03-24T12:56:06.478Z,9.47
2019-03-24T12:58:32.839Z,10.57
2019-03-24T13:00:59.461Z,8.47
2019-03-24T13:03:25.811Z,10.43
2019-03-24T13:05:52.539Z,9.30
2019-03-24T13:08:18.888Z,8.60
2019-03-24T13:10:45.794Z,9.97
2019-03-24T13:13:12.558Z,11.03
2019-03-24T13:15:39.785Z,7.93
2019-03-24T13:18:06.144Z,9.73
2019-03-24T13:20:38.576Z,8.90
2019-03-24T13:23:04.946Z,11.00
2019-03-24T13:25:31.315Z,10.47
2019-03-24T13:27:57.671Z,10.53
2019-03-24T13:30:24.347Z,9.93
2019-03-24T13:32:50.713Z,10.43
2019-03-24T13:35:17.172Z,9.47
2019-03-24T13:37:43.841Z,12.00
2019-03-24T13:40:10.486Z,10.20
2019-03-24T13:42:37.236Z,10.87
2019-03-24T13:45:05.484Z,10.43
2019-03-24T13:47:32.424Z,12.43
2019-03-24T13:49:59.291Z,10.80
2019-03-24T13:52:27.363Z,10.37
2019-03-24T13:54:54.218Z,11.23
2019-03-24T13:57:20.823Z,12.20
2019-03-24T13:59:47.185Z,11.83
2019-03-24T14:02:13.542Z,10.23
2019-03-24T14:04:39.916Z,12.20
2019-03-24T14:07:06.569Z,12.50
2019-03-24T14:09:33.222Z,9.70
2019-03-24T14:12:00.096Z,11.40
2019-03-24T14:14:26.677Z,11.47
2019-03-24T14:16:53.047Z,12.47
2019-03-24T14:19:19.508Z,13.43
2019-03-24T14:21:46.936Z,12.30
2019-03-24T14:24:13.375Z,12.10
2019-03-24T14:26:39.735Z,11.80
2019-03-24T14:29:06.781Z,11.10
2019-03-24T14:31:34.223Z,10.37
2019-03-24T14:34:00.591Z,9.90
2019-03-24T14:36:26.945Z,11.23
2019-03-24T14:38:53.299Z,12.10
2019-03-24T14:41:19.697Z,11.00
2019-03-24T14:43:46.474Z,12.37
2019-03-24T14:46:12.828Z,9.30
2019-03-24T14:48:41.931Z,8.47
2019-03-24T14:51:08.372Z,8.47
2019-03-24T14:53:35.068Z,9.13
2019-03-24T14:56:01.815Z,8.33
2019-03-24T14:58:29.966Z,7.43
2019-03-24T15:00:56.831Z,7.90
2019-03-24T15:03:23.234Z,8.67
2019-03-24T15:05:49.624Z,7.57
2019-03-24T15:08:17.460Z,7.03
2019-03-24T15:10:44.081Z,8.33
2019-03-24T15:13:10.582Z,8.87
2019-03-24T15:15:36.927Z,9.20
2019-03-24T15:18:03.529Z,8.90
2019-03-24T15:20:30.027Z,7.70
2019-03-24T15:22:59.218Z,7.20
2019-03-24T15:25:25.938Z,8.03
2019-03-24T15:27:52.617Z,8.80
2019-03-24T15:30:19.359Z,7.20
2019-03-24T15:32:45.696Z,8.00
2019-03-24T15:35:12.037Z,7.63
2019-03-24T15:37:38.655Z,8.03
2019-03-24T15:40:06.588Z,8.43
2019-03-24T15:42:32.988Z,8.87
2019-03-24T15:44:59.717Z,8.30
2019-03-24T15:47:26.761Z,8.67
2019-03-24T15:49:53.357Z,9.23
2019-03-24T15:52:20.016Z,9.17
2019-03-24T15:54:46.341Z,9.40
2019-03-24T15:57:12.989Z,7.90
2019-03-24T15:59:40.944Z,8.60
2019-03-24T16:02:07.693Z,7.70
2019-03-24T16:04:34.043Z,9.20
2019-03-24T16:07:00.761Z,8.40
2019-03-24T16:09:27.405Z,8.20
2019-03-24T16:11:53.765Z,9.93
2019-03-24T16:14:20.127Z,8.77
2019-03-24T16:16:46.804Z,9.07
2019-03-24T16:19:14.495Z,8.70
2019-03-24T16:21:41.756Z,9.10
2019-03-24T16:24:08.227Z,9.80
2019-03-24T16:26:34.847Z,10.33
2019-03-24T16:29:02.244Z,8.00
2019-03-24T16:31:28.668Z,9.00
2019-03-24T16:33:55.478Z,7.77
2019-03-24T16:36:23.868Z,9.60
2019-03-24T16:38:50.667Z,8.90
2019-03-24T16:41:17.078Z,8.80
2019-03-24T16:43:43.965Z,9.37
2019-03-24T16:46:10.940Z,8.80
2019-03-24T16:48:37.637Z,9.63
2019-03-24T16:51:06.285Z,9.83
2019-03-24T16:53:33.574Z,9.17
2019-03-24T16:56:01.331Z,9.27
2019-03-24T16:58:28.739Z,8.80
2019-03-24T17:00:55.622Z,9.57
2019-03-24T17:03:21.967Z,8.97
2019-03-24T17:05:48.309Z,9.57
2019-03-24T17:08:14.676Z,9.47
2019-03-24T17:10:41.031Z,8.87
2019-03-24T17:13:07.469Z,9.20
2019-03-24T17:15:33.785Z,9.07
2019-03-24T17:18:00.179Z,8.40
2019-03-24T17:20:26.643Z,9.23
2019-03-24T17:22:54.043Z,9.70
2019-03-24T17:25:21.195Z,9.70
2019-03-24T17:27:47.502Z,10.80
2019-03-24T17:30:14.090Z,10.60
2019-03-24T17:32:40.900Z,10.47
2019-03-24T17:35:07.678Z,9.67
2019-03-24T17:37:34.153Z,10.10
2019-03-24T17:40:00.565Z,11.17
2019-03-24T17:42:26.932Z,10.80
2019-03-24T17:44:53.314Z,11.90
2019-03-24T17:47:20.340Z,10.93
2019-03-24T17:49:47.089Z,11.90
2019-03-24T17:52:13.653Z,11.60
2019-03-24T17:54:40.584Z,11.50
2019-03-24T17:57:07.068Z,10.77
2019-03-24T17:59:33.819Z,11.90
2019-03-24T18:02:00.458Z,13.67
2019-03-24T18:04:27.221Z,12.67
2019-03-24T18:06:53.937Z,11.53
2019-03-24T18:09:22.515Z,12.77
2019-03-24T18:11:54.505Z,11.30
2019-03-24T18:14:20.859Z,12.73
2019-03-24T18:16:47.222Z,15.23
2019-03-24T18:19:15.013Z,16.27
2019-03-24T18:21:41.861Z,15.50
2019-03-24T18:24:08.751Z,18.10
2019-03-24T18:26:35.238Z,19.47
2019-03-24T18:29:01.751Z,17.73
2019-03-24T18:31:30.099Z,16.00
2019-03-24T18:33:56.402Z,16.00
2019-03-24T18:36:22.872Z,15.93
2019-03-24T18:38:49.603Z,16.20
2019-03-24T18:41:16.079Z,14.53
2019-03-24T18:43:42.869Z,19.23
2019-03-24T18:46:09.423Z,17.63
2019-03-24T18:48:35.915Z,15.37
2019-03-24T18:51:02.662Z,15.63
2019-03-24T18:53:29.055Z,15.63
2019-03-24T18:55:55.725Z,15.47
2019-03-24T18:58:22.681Z,14.73
2019-03-24T19:00:49.314Z,14.03
2019-03-24T19:03:16.129Z,13.80
2019-03-24T19:05:43.184Z,16.60
2019-03-24T19:08:10.061Z,14.73
2019-03-24T19:10:36.560Z,16.90
2019-03-24T19:13:03.674Z,16.60
2019-03-24T19:15:30.557Z,18.50
2019-03-24T19:17:57.605Z,17.70
2019-03-24T19:20:24.603Z,16.30
2019-03-24T19:22:51.589Z,17.77
2019-03-24T19:25:18.271Z,18.20
2019-03-24T19:27:44.877Z,17.90
2019-03-24T19:30:16.151Z,18.27
2019-03-24T19:32:43.369Z,18.90
2019-03-24T19:35:10.371Z,17.23
2019-03-24T19:37:37.190Z,19.20
2019-03-24T19:40:24.238Z,19.70
2019-03-24T19:42:50.939Z,18.27
2019-03-24T19:45:17.304Z,20.20
2019-03-24T19:47:44.095Z,18.43
2019-03-24T19:50:10.596Z,20.23
2019-03-24T19:52:44.667Z,19.43
2019-03-24T19:55:05.713Z,21.27
2019-03-24T19:57:32.504Z,19.33
2019-03-24T19:59:58.913Z,18.67
2019-03-24T20:02:25.561Z,18.27
2019-03-24T20:04:54.009Z,18.33
2019-03-24T20:07:20.440Z,18.23
2019-03-24T20:09:47.237Z,18.73
2019-03-24T20:12:15.852Z,17.83
2019-03-24T20:14:42.167Z,18.70
2019-03-24T20:17:09.582Z,18.30
2019-03-24T20:19:35.980Z,18.00
2019-03-24T20:22:02.698Z,19.33
2019-03-24T20:24:29.079Z,20.20
2019-03-24T20:26:55.872Z,17.70
2019-03-24T20:29:22.325Z,18.23
2019-03-24T20:31:48.676Z,19.10
2019-03-24T20:34:15.470Z,19.83
2019-03-24T20:36:41.829Z,19.30
2019-03-24T20:39:08.651Z,18.00
2019-03-24T20:41:36.521Z,18.30
2019-03-24T20:44:03.356Z,18.97
2019-03-24T20:46:30.206Z,17.30
2019-03-24T20:48:56.820Z,17.50
2019-03-24T20:51:23.568Z,17.73
2019-03-24T20:53:50.196Z,17.80
2019-03-24T20:56:16.556Z,14.73
2019-03-24T20:58:43.081Z,15.93
2019-03-24T21:01:09.702Z,16.93
2019-03-24T21:03:36.502Z,17.63
2019-03-24T21:06:03.301Z,16.03
2019-03-24T21:08:30.346Z,16.50
2019-03-24T21:10:56.987Z,16.40
2019-03-24T21:13:23.344Z,16.07
2019-03-24T21:15:49.788Z,16.90
2019-03-24T21:18:16.129Z,15.17
2019-03-24T21:20:42.508Z,18.50
2019-03-24T21:23:08.964Z,17.67
2019-03-24T21:25:36.162Z,16.40
2019-03-24T21:28:03.037Z,17.87
2019-03-24T21:30:39.297Z,18.53
2019-03-24T21:33:06.277Z,19.43
2019-03-24T21:35:33.096Z,19.47
2019-03-24T21:37:59.678Z,22.10
2019-03-24T21:40:26.103Z,21.07
2019-03-24T21:42:55.049Z,19.77
2019-03-24T21:45:21.794Z,19.37
2019-03-24T21:47:48.447Z,20.30
2019-03-24T21:50:15.058Z,21.57
2019-03-24T21:52:41.396Z,24.37
2019-03-24T21:55:08.119Z,21.60
2019-03-24T21:57:34.435Z,22.37
2019-03-24T22:00:00.874Z,22.93
2019-03-24T22:02:27.181Z,24.60
2019-03-24T22:04:55.870Z,24.13
2019-03-24T22:07:21.730Z,22.53
2019-03-24T22:09:48.113Z,25.30
2019-03-24T22:12:14.431Z,24.97
2019-03-24T22:14:40.825Z,24.90
2019-03-24T22:17:07.368Z,26.70
2019-03-24T22:19:33.702Z,26.10
2019-03-24T22:22:00.039Z,28.60
2019-03-24T22:24:26.772Z,29.50
2019-03-24T22:26:53.409Z,28.37
2019-03-24T22:29:19.735Z,27.67
2019-03-24T22:31:46.509Z,31.60
2019-03-24T22:34:12.842Z,31.30
2019-03-24T22:36:39.485Z,28.67
2019-03-24T22:39:06.862Z,31.20
2019-03-24T22:41:34.679Z,30.30
2019-03-24T22:44:01.045Z,32.33
2019-03-24T22:46:27.751Z,29.83
2019-03-24T22:48:54.209Z,31.80
2019-03-24T22:51:20.579Z,29.00
2019-03-24T22:53:46.951Z,30.20
2019-03-24T22:56:13.316Z,32.63
2019-03-24T22:58:39.647Z,30.53
2019-03-24T23:01:06.417Z,30.43
2019-03-24T23:03:34.653Z,30.73
2019-03-24T23:06:00.977Z,32.47
2019-03-24T23:08:27.617Z,33.50
2019-03-24T23:10:53.954Z,31.63
2019-03-24T23:13:20.304Z,32.40
2019-03-24T23:15:46.609Z,30.37
2019-03-24T23:18:12.915Z,28.53
2019-03-24T23:20:40.148Z,32.20
2019-03-24T23:23:06.809Z,30.47
2019-03-24T23:25:33.494Z,28.17
2019-03-24T23:28:00.107Z,29.70
2019-03-24T23:30:26.484Z,28.80
2019-03-24T23:32:53.063Z,28.50
2019-03-24T23:35:19.699Z,27.87
2019-03-24T23:37:46.370Z,29.50
2019-03-24T23:40:12.813Z,28.40
2019-03-24T23:42:39.159Z,29.33
2019-03-24T23:45:08.770Z,29.87
2019-03-24T23:47:35.463Z,26.90
2019-03-24T23:50:04.094Z,26.60
2019-03-24T23:52:30.425Z,29.37
2019-03-24T23:54:56.753Z,27.03
2019-03-24T23:57:23.443Z,26.40
2019-03-24T23:59:50.086Z,27.10
